createdAt,value
2022-08-12T00:00:09.811Z,20.25
2022-08-12T00:02:55.846Z,20.20
2022-08-12T00:05:56.365Z,20.14
2022-08-12T00:08:52.806Z,20.09
2022-08-12T00:11:39.891Z,20.03
2022-08-12T00:14:25.971Z,19.96
2022-08-12T00:17:11.555Z,19.94
2022-08-12T00:19:57.361Z,19.88
2022-08-12T00:22:43.284Z,19.82
2022-08-12T00:26:00.442Z,19.74
2022-08-12T00:28:34.998Z,19.76
2022-08-12T00:31:21.051Z,19.72
2022-08-12T00:34:06.253Z,19.69
2022-08-12T00:36:52.472Z,19.62
2022-08-12T00:39:38.904Z,19.59
2022-08-12T00:42:12.412Z,19.53
2022-08-12T00:44:45.153Z,19.55
2022-08-12T00:47:24.894Z,19.53
2022-08-12T00:49:55.776Z,19.52
2022-08-12T00:52:23.299Z,19.56
2022-08-12T00:54:50.404Z,19.51
2022-08-12T00:57:19.281Z,19.46
2022-08-12T00:59:52.226Z,19.40
2022-08-12T01:02:28.924Z,19.43
2022-08-12T01:05:29.702Z,19.43
2022-08-12T01:08:16.081Z,19.41
2022-08-12T01:11:04.419Z,19.44
2022-08-12T01:13:34.866Z,19.39
2022-08-12T01:16:04.547Z,19.31
2022-08-12T01:18:35.009Z,19.30
2022-08-12T01:21:35.626Z,19.33
2022-08-12T01:24:30.084Z,19.26
2022-08-12T01:26:59.610Z,19.26
2022-08-12T01:29:34.561Z,19.23
2022-08-12T01:32:08.910Z,19.24
2022-08-12T01:34:38.731Z,19.22
2022-08-12T01:37:08.688Z,19.19
2022-08-12T01:40:33.606Z,19.12
2022-08-12T01:42:48.384Z,19.18
2022-08-12T01:45:21.890Z,19.10
2022-08-12T01:48:13.075Z,19.13
2022-08-12T01:51:06.118Z,19.11
2022-08-12T01:53:57.669Z,19.07
2022-08-12T01:56:27.649Z,19.10
2022-08-12T01:59:18.138Z,19.09
2022-08-12T02:01:50.573Z,19.02
2022-08-12T02:04:52.929Z,18.93
2022-08-12T02:07:57.516Z,18.85
2022-08-12T02:11:06.950Z,18.89
2022-08-12T02:13:50.805Z,18.91
2022-08-12T02:16:30.692Z,18.89
2022-08-12T02:19:21.873Z,18.85
2022-08-12T02:22:11.018Z,18.85
2022-08-12T02:24:39.522Z,18.81
2022-08-12T02:27:10.675Z,18.78
2022-08-12T02:29:42.332Z,18.70
2022-08-12T02:32:12.247Z,18.63
2022-08-12T02:34:39.461Z,18.65
2022-08-12T02:37:10.428Z,18.57
2022-08-12T02:39:41.469Z,18.58
2022-08-12T02:42:11.789Z,18.54
2022-08-12T02:44:41.966Z,18.48
2022-08-12T02:47:58.399Z,18.48
2022-08-12T02:49:58.755Z,18.47
2022-08-12T02:52:27.373Z,18.42
2022-08-12T02:55:01.706Z,18.41
2022-08-12T02:57:31.874Z,18.36
2022-08-12T03:00:05.341Z,18.26
2022-08-12T03:02:35.509Z,18.20
2022-08-12T03:05:04.896Z,18.24
2022-08-12T03:07:59.522Z,18.23
2022-08-12T03:10:37.182Z,18.20
2022-08-12T03:13:10.267Z,18.23
2022-08-12T03:15:37.410Z,18.24
2022-08-12T03:18:29.371Z,18.29
2022-08-12T03:20:59.413Z,18.24
2022-08-12T03:23:31.106Z,18.21
2022-08-12T03:26:02.748Z,18.16
2022-08-12T03:28:51.345Z,18.15
2022-08-12T03:31:29.717Z,18.14
2022-08-12T03:34:11.414Z,18.10
2022-08-12T03:36:41.278Z,18.09
2022-08-12T03:39:16.055Z,18.06
2022-08-12T03:41:58.038Z,18.03
2022-08-12T03:44:56.343Z,18.11
2022-08-12T03:47:53.055Z,18.12
2022-08-12T03:50:39.929Z,18.10
2022-08-12T03:53:30.271Z,18.06
2022-08-12T03:56:16.151Z,18.09
2022-08-12T03:59:02.250Z,18.00
2022-08-12T04:01:29.772Z,18.00
2022-08-12T04:03:58.260Z,17.97
2022-08-12T04:06:35.411Z,18.05
2022-08-12T04:09:16.251Z,18.11
2022-08-12T04:12:03.957Z,18.05
2022-08-12T04:14:38.178Z,18.06
2022-08-12T04:17:05.452Z,18.10
2022-08-12T04:19:32.694Z,18.15
2022-08-12T04:22:03.576Z,18.16
2022-08-12T04:24:36.146Z,18.21
2022-08-12T04:27:09.370Z,18.31
2022-08-12T04:30:29.705Z,18.45
2022-08-12T04:32:26.050Z,18.51
2022-08-12T04:34:53.861Z,18.60
2022-08-12T04:37:20.917Z,18.72
2022-08-12T04:39:49.204Z,18.85
2022-08-12T04:42:16.552Z,18.95
2022-08-12T04:44:44.615Z,19.01
2022-08-12T04:47:17.499Z,19.09
2022-08-12T04:49:46.811Z,19.17
2022-08-12T04:52:14.866Z,19.28
2022-08-12T04:54:44.026Z,19.55
2022-08-12T04:57:11.474Z,19.69
2022-08-12T04:59:47.864Z,19.90
2022-08-12T05:02:26.864Z,20.07
2022-08-12T05:05:01.138Z,20.23
2022-08-12T05:07:28.911Z,20.24
2022-08-12T05:10:00.104Z,20.19
2022-08-12T05:12:36.443Z,20.21
2022-08-12T05:15:16.875Z,20.27
2022-08-12T05:17:53.231Z,20.24
2022-08-12T05:20:21.298Z,20.11
2022-08-12T05:23:13.715Z,20.04
2022-08-12T05:25:46.731Z,20.15
2022-08-12T05:28:16.644Z,20.30
2022-08-12T05:30:44.721Z,20.33
2022-08-12T05:33:13.296Z,20.36
2022-08-12T05:35:43.640Z,20.59
2022-08-12T05:38:31.277Z,20.94
2022-08-12T05:40:58.375Z,21.30
2022-08-12T05:43:25.297Z,21.45
2022-08-12T05:45:52.472Z,21.76
2022-08-12T05:48:19.451Z,21.92
2022-08-12T05:50:46.731Z,21.93
2022-08-12T05:53:13.782Z,21.84
2022-08-12T05:55:40.751Z,21.85
2022-08-12T05:58:10.516Z,22.06
2022-08-12T06:00:38.076Z,21.50
2022-08-12T06:03:06.079Z,21.85
2022-08-12T06:05:52.000Z,21.63
2022-08-12T06:08:21.569Z,22.32
2022-08-12T06:10:50.248Z,22.68
2022-08-12T06:13:28.205Z,22.74
2022-08-12T06:15:56.159Z,23.29
2022-08-12T06:18:26.615Z,23.19
2022-08-12T06:21:00.247Z,23.59
2022-08-12T06:23:29.979Z,23.60
2022-08-12T06:25:58.556Z,23.81
2022-08-12T06:28:26.259Z,24.10
2022-08-12T06:31:15.286Z,24.16
2022-08-12T06:34:00.383Z,24.11
2022-08-12T06:36:32.667Z,23.56
2022-08-12T06:39:01.029Z,23.59
2022-08-12T06:42:02.083Z,23.98
2022-08-12T06:44:32.794Z,24.21
2022-08-12T06:47:00.058Z,24.39
2022-08-12T06:49:28.404Z,24.47
2022-08-12T06:51:56.239Z,24.56
2022-08-12T06:54:31.656Z,24.88
2022-08-12T06:57:05.310Z,25.97
2022-08-12T06:59:51.026Z,24.64
2022-08-12T07:02:20.606Z,23.66
2022-08-12T07:04:47.558Z,23.33
2022-08-12T07:07:14.808Z,23.06
2022-08-12T07:10:04.805Z,22.86
2022-08-12T07:12:29.892Z,22.65
2022-08-12T07:15:01.766Z,22.60
2022-08-12T07:17:35.660Z,22.83
2022-08-12T07:20:05.567Z,23.35
2022-08-12T07:22:33.394Z,23.54
2022-08-12T07:25:18.591Z,23.68
2022-08-12T07:27:46.602Z,24.04
2022-08-12T07:30:14.374Z,24.56
2022-08-12T07:32:41.405Z,25.01
2022-08-12T07:35:08.641Z,25.85
2022-08-12T07:37:41.721Z,25.47
2022-08-12T07:40:11.609Z,24.81
2022-08-12T07:42:40.722Z,24.21
2022-08-12T07:45:09.491Z,25.08
2022-08-12T07:47:36.583Z,24.99
2022-08-12T07:50:09.277Z,26.43
2022-08-12T07:52:44.044Z,27.43
2022-08-12T07:55:11.760Z,28.78
2022-08-12T07:57:59.530Z,32.44
2022-08-12T08:00:28.179Z,33.41
2022-08-12T08:02:55.185Z,33.74
2022-08-12T08:05:25.000Z,34.95
2022-08-12T08:07:53.441Z,34.08
2022-08-12T08:10:20.987Z,34.84
2022-08-12T08:12:54.024Z,34.80
2022-08-12T08:15:38.581Z,35.16
2022-08-12T08:18:25.725Z,35.77
2022-08-12T08:20:52.873Z,36.14
2022-08-12T08:23:19.546Z,35.53
2022-08-12T08:25:50.048Z,36.20
2022-08-12T08:28:17.271Z,36.04
2022-08-12T08:30:47.829Z,33.20
2022-08-12T08:33:24.670Z,34.31
2022-08-12T08:36:06.855Z,36.31
2022-08-12T08:38:57.751Z,37.58
2022-08-12T08:42:16.577Z,39.02
2022-08-12T08:44:32.050Z,39.80
2022-08-12T08:47:01.286Z,40.12
2022-08-12T08:49:28.020Z,40.34
2022-08-12T08:51:54.666Z,40.36
2022-08-12T08:54:21.318Z,41.12
2022-08-12T08:56:49.890Z,40.79
2022-08-12T08:59:22.343Z,38.40
2022-08-12T09:01:49.131Z,39.35
2022-08-12T09:05:09.111Z,40.49
2022-08-12T09:07:17.870Z,37.43
2022-08-12T09:10:02.999Z,36.30
2022-08-12T09:15:39.043Z,41.04
2022-08-12T09:18:11.031Z,41.33
2022-08-12T09:20:39.759Z,37.91
2022-08-12T09:23:59.788Z,38.90
2022-08-12T09:25:56.323Z,41.18
2022-08-12T09:28:31.443Z,40.08
2022-08-12T09:31:00.165Z,39.84
2022-08-12T09:34:26.600Z,41.11
2022-08-12T09:36:31.487Z,41.11
2022-08-12T09:40:06.397Z,42.50
2022-08-12T09:42:34.190Z,43.02
2022-08-12T09:45:23.222Z,42.39
2022-08-12T09:47:59.171Z,42.34
2022-08-12T09:50:27.529Z,41.04
2022-08-12T09:53:15.384Z,38.20
2022-08-12T09:56:05.277Z,36.87
2022-08-12T09:58:57.694Z,39.04
2022-08-12T10:01:23.210Z,38.47
2022-08-12T10:04:04.206Z,38.27
2022-08-12T10:06:35.900Z,40.02
2022-08-12T10:09:06.729Z,40.00
2022-08-12T10:12:12.051Z,40.22
2022-08-12T10:14:50.022Z,40.39
2022-08-12T10:17:22.703Z,40.17
2022-08-12T10:19:53.035Z,38.85
2022-08-12T10:22:39.089Z,34.88
2022-08-12T10:26:35.409Z,34.79
2022-08-12T10:28:32.965Z,34.73
2022-08-12T10:31:01.246Z,34.91
2022-08-12T10:33:31.614Z,35.07
2022-08-12T10:36:00.082Z,33.85
2022-08-12T10:38:37.134Z,34.91
2022-08-12T10:41:57.187Z,34.07
2022-08-12T10:44:16.874Z,34.86
2022-08-12T10:46:49.550Z,35.52
2022-08-12T10:50:04.911Z,34.89
2022-08-12T10:52:33.009Z,34.96
2022-08-12T10:54:55.899Z,35.63
2022-08-12T10:58:13.301Z,35.96
2022-08-12T11:00:34.809Z,36.68
2022-08-12T11:04:25.696Z,37.09
2022-08-12T11:07:06.816Z,36.59
2022-08-12T11:08:43.587Z,37.20
2022-08-12T11:12:36.948Z,36.11
2022-08-12T11:14:05.682Z,35.11
2022-08-12T11:16:33.338Z,33.52
2022-08-12T11:19:02.764Z,34.52
2022-08-12T11:21:57.525Z,34.07
2022-08-12T11:24:30.843Z,32.19
2022-08-12T11:27:01.613Z,30.28
2022-08-12T11:30:02.301Z,29.07
2022-08-12T11:32:21.147Z,28.28
2022-08-12T11:34:53.058Z,28.75
2022-08-12T11:37:25.940Z,27.82
2022-08-12T11:42:37.380Z,27.68
2022-08-12T11:45:16.268Z,27.75
2022-08-12T11:47:44.087Z,29.82
2022-08-12T11:50:19.258Z,31.87
2022-08-12T11:52:56.029Z,31.66
2022-08-12T11:55:25.355Z,30.28
2022-08-12T11:58:09.448Z,29.06
2022-08-12T12:03:46.000Z,27.87
2022-08-12T12:06:17.996Z,28.24
2022-08-12T12:08:50.406Z,27.85
2022-08-12T12:11:18.947Z,27.61
2022-08-12T12:14:07.394Z,26.92
2022-08-12T12:16:33.535Z,26.42
2022-08-12T12:19:05.588Z,26.22
2022-08-12T12:21:46.999Z,26.47
2022-08-12T12:24:22.119Z,26.45
2022-08-12T12:26:59.627Z,26.30
2022-08-12T12:30:19.726Z,26.27
2022-08-12T12:32:18.922Z,26.37
2022-08-12T12:35:14.892Z,26.44
2022-08-12T12:38:04.409Z,26.51
2022-08-12T12:40:22.429Z,26.26
2022-08-12T12:43:00.591Z,26.32
2022-08-12T12:45:33.545Z,26.62
2022-08-12T12:48:20.129Z,26.72
2022-08-12T12:51:09.947Z,27.06
2022-08-12T12:54:08.503Z,27.19
2022-08-12T12:56:34.826Z,27.61
2022-08-12T12:59:03.797Z,28.00
2022-08-12T13:01:31.103Z,28.09
2022-08-12T13:04:02.558Z,28.01
2022-08-12T13:06:30.948Z,27.80
2022-08-12T13:09:03.089Z,27.43
2022-08-12T13:11:41.317Z,27.27
2022-08-12T13:14:29.532Z,26.61
2022-08-12T13:17:02.416Z,26.53
2022-08-12T13:19:38.612Z,26.46
2022-08-12T13:22:20.314Z,26.32
2022-08-12T13:24:51.818Z,26.90
2022-08-12T13:27:21.656Z,27.01
2022-08-12T13:29:48.935Z,27.07
2022-08-12T13:32:28.444Z,26.28
2022-08-12T13:35:04.745Z,25.80
2022-08-12T13:37:54.711Z,25.58
2022-08-12T13:40:23.247Z,25.62
2022-08-12T13:42:53.268Z,25.48
2022-08-12T13:45:20.051Z,25.23
2022-08-12T13:47:56.455Z,25.06
2022-08-12T13:50:32.667Z,25.26
2022-08-12T13:53:23.306Z,25.10
2022-08-12T13:56:01.491Z,25.16
2022-08-12T13:58:30.687Z,25.13
2022-08-12T14:00:58.705Z,25.05
2022-08-12T14:03:28.369Z,24.80
2022-08-12T14:06:15.222Z,24.78
2022-08-12T14:08:43.356Z,24.81
2022-08-12T14:11:12.465Z,24.94
2022-08-12T14:14:03.109Z,24.83
2022-08-12T14:16:37.557Z,24.64
2022-08-12T14:19:24.490Z,24.60
2022-08-12T14:22:01.206Z,24.47
2022-08-12T14:24:40.939Z,24.54
2022-08-12T14:27:12.170Z,24.64
2022-08-12T14:30:04.463Z,24.96
2022-08-12T14:32:35.001Z,25.27
2022-08-12T14:35:05.200Z,25.42
2022-08-12T14:37:56.406Z,25.76
2022-08-12T14:40:27.610Z,26.10
2022-08-12T14:42:57.011Z,26.04
2022-08-12T14:45:37.110Z,26.04
2022-08-12T14:48:12.809Z,25.43
2022-08-12T14:51:03.011Z,24.72
2022-08-12T14:56:58.549Z,21.88
2022-08-12T14:59:23.361Z,20.48
2022-08-12T15:01:52.002Z,18.95
2022-08-12T15:04:24.653Z,18.58
2022-08-12T15:06:53.268Z,17.98
2022-08-12T15:09:28.898Z,17.71
2022-08-12T15:12:03.986Z,17.52
2022-08-12T15:14:31.483Z,17.22
2022-08-12T15:17:00.614Z,17.25
2022-08-12T15:20:11.804Z,16.96
2022-08-12T15:22:37.407Z,16.57
2022-08-12T15:25:07.544Z,16.48
2022-08-12T15:28:04.321Z,16.40
2022-08-12T15:30:31.375Z,16.37
2022-08-12T15:32:59.034Z,16.20
2022-08-12T15:35:31.355Z,16.16
2022-08-12T15:38:12.040Z,16.29
2022-08-12T15:40:48.463Z,16.40
2022-08-12T15:43:51.778Z,16.57
2022-08-12T15:46:06.241Z,16.64
2022-08-12T15:48:33.929Z,16.73
2022-08-12T15:51:02.945Z,16.81
2022-08-12T15:54:05.506Z,16.92
2022-08-12T15:56:53.807Z,17.00
2022-08-12T15:59:42.494Z,17.02
2022-08-12T16:02:08.839Z,16.98
2022-08-12T16:04:36.378Z,16.93
2022-08-12T16:07:10.015Z,17.11
2022-08-12T16:10:04.885Z,17.16
2022-08-12T16:12:23.583Z,17.09
2022-08-12T16:14:55.191Z,17.12
2022-08-12T16:17:26.067Z,16.95
2022-08-12T16:20:12.267Z,16.98
2022-08-12T16:22:39.048Z,16.78
2022-08-12T16:25:10.051Z,16.93
2022-08-12T16:27:38.625Z,16.92
2022-08-12T16:30:06.021Z,16.92
2022-08-12T16:32:36.791Z,16.95
2022-08-12T16:35:08.006Z,16.91
2022-08-12T16:38:25.735Z,16.92
2022-08-12T16:40:32.386Z,16.93
2022-08-12T16:43:13.087Z,16.92
2022-08-12T16:46:05.115Z,16.86
2022-08-12T16:48:35.767Z,16.82
2022-08-12T16:51:09.251Z,16.84
2022-08-12T16:53:43.842Z,16.88
2022-08-12T16:56:12.426Z,16.80
2022-08-12T16:58:40.727Z,16.74
2022-08-12T17:01:11.988Z,16.63
2022-08-12T17:04:09.043Z,16.64
2022-08-12T17:06:41.557Z,16.44
2022-08-12T17:09:17.361Z,16.49
2022-08-12T17:11:48.993Z,16.38
2022-08-12T17:14:16.101Z,16.36
2022-08-12T17:16:43.300Z,16.27
2022-08-12T17:19:13.964Z,16.20
2022-08-12T17:22:01.261Z,16.20
2022-08-12T17:24:32.452Z,16.20
2022-08-12T17:27:14.440Z,16.20
2022-08-12T17:30:02.204Z,16.16
2022-08-12T17:32:33.687Z,16.19
2022-08-12T17:35:20.874Z,16.16
2022-08-12T17:37:50.803Z,16.38
2022-08-12T17:40:35.974Z,16.28
2022-08-12T17:43:56.294Z,16.24
2022-08-12T17:45:56.172Z,16.18
2022-08-12T17:48:35.242Z,16.18
2022-08-12T17:51:16.028Z,16.39
2022-08-12T17:54:11.157Z,16.25
2022-08-12T17:56:33.265Z,16.30
2022-08-12T17:59:01.626Z,16.21
2022-08-12T18:01:29.883Z,16.33
2022-08-12T18:04:21.675Z,16.24
2022-08-12T18:06:53.984Z,16.38
2022-08-12T18:09:24.532Z,16.29
2022-08-12T18:12:11.542Z,16.21
2022-08-12T18:14:41.172Z,16.03
2022-08-12T18:17:10.035Z,15.98
2022-08-12T18:20:05.872Z,15.91
2022-08-12T18:22:30.904Z,15.84
2022-08-12T18:25:02.735Z,15.83
2022-08-12T18:27:43.525Z,15.75
2022-08-12T18:30:13.351Z,15.68
2022-08-12T18:32:58.429Z,15.65
2022-08-12T18:35:47.318Z,15.66
2022-08-12T18:38:25.583Z,15.69
2022-08-12T18:41:20.977Z,15.75
2022-08-12T18:44:06.871Z,15.73
2022-08-12T18:46:46.978Z,15.71
2022-08-12T18:49:21.682Z,15.77
2022-08-12T18:52:02.678Z,15.83
2022-08-12T18:54:35.196Z,15.90
2022-08-12T18:57:19.311Z,15.93
2022-08-12T19:00:01.781Z,15.86
2022-08-12T19:02:33.010Z,15.92
2022-08-12T19:05:09.501Z,15.93
2022-08-12T19:07:57.713Z,15.87
2022-08-12T19:10:29.944Z,15.84
2022-08-12T19:13:23.200Z,15.90
2022-08-12T19:15:57.773Z,15.90
2022-08-12T19:18:29.230Z,15.85
2022-08-12T19:20:58.699Z,15.97
2022-08-12T19:23:35.299Z,16.01
2022-08-12T19:26:04.484Z,15.97
2022-08-12T19:28:35.900Z,15.99
2022-08-12T19:31:59.363Z,16.05
2022-08-12T19:36:06.719Z,16.07
2022-08-12T19:37:27.528Z,15.96
2022-08-12T19:40:08.723Z,15.92
2022-08-12T19:42:53.547Z,15.93
2022-08-12T19:45:22.248Z,16.07
2022-08-12T19:47:49.099Z,16.00
2022-08-12T19:50:20.275Z,15.94
2022-08-12T19:52:47.751Z,16.01
2022-08-12T19:55:21.339Z,16.04
2022-08-12T19:58:01.299Z,16.00
2022-08-12T20:00:29.487Z,15.99
2022-08-12T20:03:00.596Z,16.00
2022-08-12T20:06:04.989Z,16.09
2022-08-12T20:08:29.346Z,16.05
2022-08-12T20:12:12.606Z,15.92
2022-08-12T20:14:00.402Z,15.89
2022-08-12T20:16:53.228Z,15.79
2022-08-12T20:19:19.976Z,15.78
2022-08-12T20:21:46.729Z,15.82
2022-08-12T20:24:14.427Z,15.86
2022-08-12T20:26:42.563Z,15.90
2022-08-12T20:29:11.545Z,15.99
2022-08-12T20:31:41.582Z,16.00
2022-08-12T20:34:12.257Z,16.07
2022-08-12T20:36:44.802Z,16.03
2022-08-12T20:39:37.142Z,15.99
2022-08-12T20:42:07.486Z,15.99
2022-08-12T20:44:40.511Z,16.01
2022-08-12T20:47:20.063Z,16.03
2022-08-12T20:49:54.842Z,16.08
2022-08-12T20:52:29.027Z,15.96
2022-08-12T20:55:15.886Z,15.81
2022-08-12T20:58:02.152Z,15.83
2022-08-12T21:00:32.111Z,15.70
2022-08-12T21:03:19.765Z,15.64
2022-08-12T21:06:12.837Z,15.55
2022-08-12T21:08:40.867Z,15.46
2022-08-12T21:11:09.598Z,15.44
2022-08-12T21:13:39.409Z,15.37
2022-08-12T21:16:10.131Z,15.32
2022-08-12T21:18:38.053Z,15.25
2022-08-12T21:21:06.678Z,15.21
2022-08-12T21:23:37.373Z,15.16
2022-08-12T21:26:12.463Z,15.14
2022-08-12T21:28:58.558Z,15.14
2022-08-12T21:32:39.224Z,15.13
2022-08-12T21:34:19.916Z,15.09
2022-08-12T21:36:49.545Z,15.11
2022-08-12T21:39:21.415Z,15.06
2022-08-12T21:41:55.203Z,15.08
2022-08-12T21:45:44.644Z,15.03
2022-08-12T21:47:20.233Z,15.02
2022-08-12T21:50:03.060Z,15.08
2022-08-12T21:52:42.332Z,15.10
2022-08-12T21:55:18.682Z,15.10
2022-08-12T21:57:53.228Z,15.04
2022-08-12T22:00:31.943Z,15.01
2022-08-12T22:03:30.291Z,14.94
2022-08-12T22:06:30.672Z,14.88
2022-08-12T22:09:02.713Z,14.84
2022-08-12T22:11:41.139Z,14.75
2022-08-12T22:14:10.336Z,14.77
2022-08-12T22:16:50.432Z,14.79
2022-08-12T22:19:19.311Z,14.82
2022-08-12T22:21:54.388Z,14.89
2022-08-12T22:24:26.231Z,15.10
2022-08-12T22:26:55.325Z,15.14
2022-08-12T22:29:40.595Z,15.21
2022-08-12T22:32:11.567Z,15.23
2022-08-12T22:34:39.401Z,15.23
2022-08-12T22:37:11.156Z,15.23
2022-08-12T22:39:46.248Z,15.16
2022-08-12T22:42:34.090Z,15.22
2022-08-12T22:45:23.300Z,15.21
2022-08-12T22:47:55.458Z,15.28
2022-08-12T22:50:28.714Z,15.23
2022-08-12T22:53:15.521Z,15.15
2022-08-12T22:55:59.932Z,15.10
2022-08-12T22:58:33.690Z,15.05
2022-08-12T23:01:01.945Z,14.97
2022-08-12T23:03:46.768Z,14.88
2022-08-12T23:06:16.636Z,14.81
2022-08-12T23:08:43.548Z,14.76
2022-08-12T23:11:10.432Z,14.90
2022-08-12T23:13:54.685Z,14.88
2022-08-12T23:16:29.502Z,14.96
2022-08-12T23:19:09.977Z,15.01
2022-08-12T23:22:05.099Z,15.04
2022-08-12T23:24:36.894Z,15.12
2022-08-12T23:27:44.257Z,15.24
2022-08-12T23:30:18.864Z,15.22
2022-08-12T23:32:54.836Z,15.25
2022-08-12T23:35:45.670Z,15.21
2022-08-12T23:38:30.179Z,15.24
2022-08-12T23:41:01.079Z,15.28
2022-08-12T23:43:40.129Z,15.30
2022-08-12T23:46:12.383Z,15.33
2022-08-12T23:48:48.011Z,15.44
2022-08-12T23:51:22.592Z,15.41
2022-08-12T23:54:07.174Z,15.45
2022-08-12T23:56:37.102Z,15.41
2022-08-12T23:59:07.987Z,15.43
